createdAt,value
2022-12-24T00:01:08.888Z,101483.59
2022-12-24T00:03:38.350Z,101478.41
2022-12-24T00:06:06.721Z,101467.00
2022-12-24T00:08:33.949Z,101470.25
2022-12-24T00:11:01.229Z,101479.53
2022-12-24T00:13:28.481Z,101490.16
2022-12-24T00:15:55.534Z,101478.16
2022-12-24T00:18:22.685Z,101484.09
2022-12-24T00:20:50.176Z,101480.56
2022-12-24T00:23:18.173Z,101484.94
2022-12-24T00:25:46.009Z,101492.59
2022-12-24T00:28:14.097Z,101490.66
2022-12-24T00:30:42.632Z,101495.31
2022-12-24T00:33:10.251Z,101495.28
2022-12-24T00:35:39.677Z,101507.50
2022-12-24T00:38:07.377Z,101494.69
2022-12-24T00:40:34.619Z,101499.53
2022-12-24T00:43:01.704Z,101487.31
2022-12-24T00:45:28.853Z,101505.06
2022-12-24T00:47:56.058Z,101500.78
2022-12-24T00:50:23.262Z,101508.41
2022-12-24T00:52:50.382Z,101510.34
2022-12-24T00:55:17.438Z,101507.09
2022-12-24T00:57:44.524Z,101515.88
2022-12-24T01:00:11.907Z,101523.81
2022-12-24T01:02:39.078Z,101512.06
2022-12-24T01:05:12.394Z,101510.75
2022-12-24T01:07:42.011Z,101511.59
2022-12-24T01:10:10.437Z,101512.16
2022-12-24T01:12:37.901Z,101523.16
2022-12-24T01:15:05.973Z,101517.97
2022-12-24T01:17:34.899Z,101510.91
2022-12-24T01:20:02.203Z,101508.06
2022-12-24T01:22:29.278Z,101500.69
2022-12-24T01:24:56.313Z,101495.00
2022-12-24T01:27:23.828Z,101495.53
2022-12-24T01:29:50.882Z,101497.75
2022-12-24T01:32:18.103Z,101497.50
2022-12-24T01:34:45.202Z,101509.78
2022-12-24T01:37:12.430Z,101501.59
2022-12-24T01:39:39.487Z,101489.56
2022-12-24T01:42:37.134Z,101485.22
2022-12-24T01:45:42.396Z,101481.16
2022-12-24T01:48:17.635Z,101492.59
2022-12-24T01:50:45.177Z,101508.63
2022-12-24T01:53:14.338Z,101502.16
2022-12-24T01:55:42.098Z,101499.19
2022-12-24T01:58:11.306Z,101486.41
2022-12-24T02:00:38.526Z,101475.75
2022-12-24T02:03:05.866Z,101468.66
2022-12-24T02:05:32.889Z,101467.59
2022-12-24T02:08:02.785Z,101457.72
2022-12-24T02:10:29.889Z,101453.13
2022-12-24T02:12:58.488Z,101445.00
2022-12-24T02:15:29.244Z,101447.22
2022-12-24T02:18:13.916Z,101451.31
2022-12-24T02:20:53.023Z,101437.19
2022-12-24T02:23:57.447Z,101436.94
2022-12-24T02:26:24.518Z,101418.97
2022-12-24T02:29:18.494Z,101416.53
2022-12-24T02:31:56.145Z,101435.56
2022-12-24T02:34:30.574Z,101448.88
2022-12-24T02:37:04.486Z,101439.13
2022-12-24T02:39:44.557Z,101435.59
2022-12-24T02:42:16.758Z,101443.25
2022-12-24T02:44:52.362Z,101438.09
2022-12-24T02:47:23.266Z,101439.38
2022-12-24T02:49:50.610Z,101440.69
2022-12-24T02:52:38.350Z,101448.00
2022-12-24T02:55:23.641Z,101441.88
2022-12-24T02:57:58.754Z,101435.41
2022-12-24T03:00:27.150Z,101432.75
2022-12-24T03:03:07.699Z,101428.13
2022-12-24T03:05:51.808Z,101415.59
2022-12-24T03:08:33.896Z,101427.00
2022-12-24T03:11:08.488Z,101434.38
2022-12-24T03:13:35.762Z,101445.56
2022-12-24T03:16:07.421Z,101442.31
2022-12-24T03:18:38.255Z,101441.75
2022-12-24T03:21:16.534Z,101447.03
2022-12-24T03:23:43.838Z,101450.31
2022-12-24T03:26:13.315Z,101450.88
2022-12-24T03:28:41.866Z,101441.59
2022-12-24T03:31:10.874Z,101432.91
2022-12-24T03:33:38.816Z,101417.63
2022-12-24T03:36:07.682Z,101426.25
2022-12-24T03:38:35.079Z,101437.88
2022-12-24T03:41:03.492Z,101449.56
2022-12-24T03:43:30.597Z,101446.59
2022-12-24T03:45:57.846Z,101437.41
2022-12-24T03:48:32.184Z,101424.63
2022-12-24T03:50:59.815Z,101433.13
2022-12-24T03:53:26.998Z,101437.50
2022-12-24T03:55:54.149Z,101446.97
2022-12-24T03:58:21.279Z,101438.31
2022-12-24T04:00:48.465Z,101453.25
2022-12-24T04:03:15.612Z,101457.84
2022-12-24T04:05:43.075Z,101446.38
2022-12-24T04:08:10.057Z,101439.53
2022-12-24T04:10:37.181Z,101443.66
2022-12-24T04:13:04.165Z,101444.22
2022-12-24T04:15:31.372Z,101451.84
2022-12-24T04:17:58.366Z,101454.06
2022-12-24T04:20:25.545Z,101460.03
2022-12-24T04:22:53.792Z,101462.25
2022-12-24T04:25:20.890Z,101450.81
2022-12-24T04:27:48.031Z,101455.13
2022-12-24T04:30:15.076Z,101454.34
2022-12-24T04:32:42.188Z,101462.75
2022-12-24T04:35:09.725Z,101445.84
2022-12-24T04:37:36.802Z,101445.84
2022-12-24T04:40:04.198Z,101443.69
2022-12-24T04:42:31.213Z,101450.25
2022-12-24T04:44:58.207Z,101442.94
2022-12-24T04:47:25.290Z,101437.75
2022-12-24T04:49:52.493Z,101438.47
2022-12-24T04:52:19.519Z,101436.38
2022-12-24T04:54:46.631Z,101441.88
2022-12-24T04:57:13.751Z,101434.28
2022-12-24T04:59:40.837Z,101432.72
2022-12-24T05:02:08.039Z,101428.47
2022-12-24T05:04:35.165Z,101430.16
2022-12-24T05:07:02.511Z,101438.91
2022-12-24T05:09:29.458Z,101428.59
2022-12-24T05:11:56.719Z,101426.16
2022-12-24T05:14:23.755Z,101426.72
2022-12-24T05:16:50.840Z,101427.31
2022-12-24T05:19:17.987Z,101431.88
2022-12-24T05:21:45.006Z,101433.56
2022-12-24T05:24:30.876Z,101428.72
2022-12-24T05:26:59.258Z,101430.44
2022-12-24T05:29:26.477Z,101442.13
2022-12-24T05:31:53.572Z,101436.16
2022-12-24T05:34:20.683Z,101438.88
2022-12-24T05:36:47.918Z,101442.41
2022-12-24T05:39:16.833Z,101440.78
2022-12-24T05:41:45.064Z,101437.50
2022-12-24T05:44:12.190Z,101435.03
2022-12-24T05:46:39.598Z,101444.56
2022-12-24T05:49:06.804Z,101453.25
2022-12-24T05:51:33.835Z,101450.00
2022-12-24T05:54:01.105Z,101443.75
2022-12-24T05:56:28.193Z,101444.81
2022-12-24T05:58:55.358Z,101440.50
2022-12-24T06:01:23.434Z,101448.66
2022-12-24T06:03:52.012Z,101450.34
2022-12-24T06:06:25.075Z,101446.25
2022-12-24T06:08:55.199Z,101448.19
2022-12-24T06:11:27.723Z,101453.63
2022-12-24T06:13:55.416Z,101456.09
2022-12-24T06:16:24.573Z,101464.19
2022-12-24T06:18:52.139Z,101458.19
2022-12-24T06:21:20.844Z,101463.56
2022-12-24T06:23:48.355Z,101465.94
2022-12-24T06:26:19.538Z,101474.63
2022-12-24T06:28:47.552Z,101470.72
2022-12-24T06:31:17.006Z,101475.28
2022-12-24T06:33:44.506Z,101480.91
2022-12-24T06:36:18.589Z,101485.44
2022-12-24T06:38:47.152Z,101481.50
2022-12-24T06:41:14.907Z,101465.84
2022-12-24T06:43:47.181Z,101480.41
2022-12-24T06:46:15.428Z,101468.47
2022-12-24T06:48:44.895Z,101476.78
2022-12-24T06:51:14.152Z,101485.09
2022-12-24T06:53:41.379Z,101479.28
2022-12-24T06:56:14.713Z,101470.75
2022-12-24T06:58:42.383Z,101470.16
2022-12-24T07:01:12.259Z,101477.47
2022-12-24T07:03:41.194Z,101479.31
2022-12-24T07:06:20.371Z,101480.84
2022-12-24T07:08:47.552Z,101485.34
2022-12-24T07:11:14.742Z,101477.59
2022-12-24T07:13:41.877Z,101475.00
2022-12-24T07:16:09.192Z,101482.72
2022-12-24T07:18:36.374Z,101482.06
2022-12-24T07:21:07.324Z,101488.88
2022-12-24T07:23:35.265Z,101484.03
2022-12-24T07:26:04.497Z,101483.25
2022-12-24T07:28:31.985Z,101484.38
2022-12-24T07:31:01.544Z,101487.53
2022-12-24T07:33:29.173Z,101485.53
2022-12-24T07:36:03.560Z,101482.88
2022-12-24T07:38:31.660Z,101490.19
2022-12-24T07:40:58.859Z,101493.63
2022-12-24T07:43:27.264Z,101482.69
2022-12-24T07:45:58.252Z,101474.94
2022-12-24T07:48:27.911Z,101464.56
2022-12-24T07:50:57.820Z,101449.88
2022-12-24T07:53:26.141Z,101446.47
2022-12-24T07:55:53.468Z,101449.41
2022-12-24T07:58:20.709Z,101443.91
2022-12-24T08:00:47.877Z,101448.78
2022-12-24T08:03:21.807Z,101458.94
2022-12-24T08:05:49.552Z,101462.34
2022-12-24T08:08:16.649Z,101460.47
2022-12-24T08:10:45.315Z,101462.75
2022-12-24T08:13:13.321Z,101464.38
2022-12-24T08:15:41.308Z,101470.38
2022-12-24T08:18:09.181Z,101463.00
2022-12-24T08:20:38.977Z,101476.38
2022-12-24T08:23:07.467Z,101471.63
2022-12-24T08:25:35.047Z,101478.97
2022-12-24T08:28:02.162Z,101482.91
2022-12-24T08:30:29.248Z,101485.88
2022-12-24T08:32:56.209Z,101487.22
2022-12-24T08:35:23.309Z,101491.75
2022-12-24T08:37:51.483Z,101502.00
2022-12-24T08:40:18.582Z,101500.56
2022-12-24T08:42:45.795Z,101498.44
2022-12-24T08:45:14.657Z,101507.38
2022-12-24T08:47:42.354Z,101507.69
2022-12-24T08:50:10.147Z,101510.91
2022-12-24T08:52:37.501Z,101519.75
2022-12-24T08:55:05.206Z,101514.25
2022-12-24T08:57:32.211Z,101513.50
2022-12-24T08:59:59.193Z,101520.75
2022-12-24T09:02:26.225Z,101531.03
2022-12-24T09:04:53.397Z,101532.91
2022-12-24T09:07:20.468Z,101537.13
2022-12-24T09:09:47.562Z,101528.88
2022-12-24T09:12:14.678Z,101533.56
2022-12-24T09:14:41.725Z,101538.88
2022-12-24T09:17:08.774Z,101536.28
2022-12-24T09:19:36.476Z,101541.88
2022-12-24T09:22:03.948Z,101553.28
2022-12-24T09:24:31.204Z,101554.66
2022-12-24T09:26:58.363Z,101552.03
2022-12-24T09:29:25.842Z,101558.03
2022-12-24T09:31:55.373Z,101555.03
2022-12-24T09:34:28.266Z,101562.66
2022-12-24T09:36:57.589Z,101559.78
2022-12-24T09:39:24.767Z,101564.38
2022-12-24T09:42:17.566Z,101564.63
2022-12-24T09:44:49.425Z,101560.06
2022-12-24T09:47:30.147Z,101558.44
2022-12-24T09:50:02.674Z,101550.81
2022-12-24T09:52:36.050Z,101556.59
2022-12-24T09:55:32.694Z,101550.88
2022-12-24T09:58:02.599Z,101546.47
2022-12-24T10:00:35.999Z,101544.97
2022-12-24T10:03:14.740Z,101546.22
2022-12-24T10:05:58.818Z,101547.03
2022-12-24T10:08:36.245Z,101551.13
2022-12-24T10:11:32.347Z,101551.56
2022-12-24T10:14:25.644Z,101543.38
2022-12-24T10:17:17.360Z,101544.28
2022-12-24T10:20:05.902Z,101548.09
2022-12-24T10:23:02.483Z,101541.81
2022-12-24T10:25:44.081Z,101540.59
2022-12-24T10:28:19.912Z,101539.34
2022-12-24T10:30:49.939Z,101536.59
2022-12-24T10:33:45.016Z,101538.06
2022-12-24T10:36:18.542Z,101542.53
2022-12-24T10:38:46.886Z,101551.19
2022-12-24T10:41:15.409Z,101542.63
2022-12-24T10:43:45.613Z,101551.13
2022-12-24T10:46:22.938Z,101540.63
2022-12-24T10:48:59.065Z,101547.53
2022-12-24T10:51:46.629Z,101539.16
2022-12-24T10:54:22.756Z,101529.09
2022-12-24T10:56:59.550Z,101523.81
2022-12-24T10:59:43.897Z,101529.31
2022-12-24T11:02:37.099Z,101520.88
2022-12-24T11:05:08.635Z,101527.09
2022-12-24T11:07:35.803Z,101512.94
2022-12-24T11:10:07.987Z,101518.22
2022-12-24T11:12:40.645Z,101512.00
2022-12-24T11:15:16.447Z,101509.63
2022-12-24T11:17:54.147Z,101523.88
2022-12-24T11:20:27.093Z,101522.44
2022-12-24T11:22:55.010Z,101519.91
2022-12-24T11:25:29.214Z,101519.38
2022-12-24T11:28:11.525Z,101517.28
2022-12-24T11:30:39.199Z,101521.78
2022-12-24T11:33:09.404Z,101513.34
2022-12-24T11:35:43.729Z,101504.44
2022-12-24T11:38:19.216Z,101507.88
2022-12-24T11:40:58.875Z,101510.91
2022-12-24T11:43:44.612Z,101512.47
2022-12-24T11:46:23.119Z,101517.56
2022-12-24T11:49:15.731Z,101515.22
2022-12-24T11:52:08.819Z,101510.84
2022-12-24T11:55:15.530Z,101503.91
2022-12-24T11:57:55.200Z,101509.44
2022-12-24T12:00:22.527Z,101518.91
2022-12-24T12:02:52.793Z,101517.06
2022-12-24T12:05:24.391Z,101517.22
2022-12-24T12:07:57.479Z,101517.84
2022-12-24T12:10:39.993Z,101503.03
2022-12-24T12:13:37.437Z,101499.31
2022-12-24T12:17:04.227Z,101496.00
2022-12-24T12:19:48.492Z,101481.28
2022-12-24T12:22:52.860Z,101487.56
2022-12-24T12:25:31.054Z,101488.09
2022-12-24T12:28:00.751Z,101487.81
2022-12-24T12:30:31.833Z,101469.75
2022-12-24T12:33:07.823Z,101469.09
2022-12-24T12:35:39.041Z,101452.03
2022-12-24T12:38:11.931Z,101453.53
2022-12-24T12:41:06.425Z,101441.66
2022-12-24T12:43:39.429Z,101446.03
2022-12-24T12:46:06.495Z,101444.66
2022-12-24T12:49:15.746Z,101445.06
2022-12-24T12:52:00.050Z,101450.31
2022-12-24T12:55:06.830Z,101447.00
2022-12-24T12:57:37.846Z,101463.81
2022-12-24T13:00:07.415Z,101458.47
2022-12-24T13:03:20.765Z,101461.50
2022-12-24T13:05:57.033Z,101472.53
2022-12-24T13:08:52.996Z,101479.22
2022-12-24T13:11:47.971Z,101469.56
2022-12-24T13:14:25.632Z,101464.50
2022-12-24T13:17:23.974Z,101463.66
2022-12-24T13:20:32.712Z,101454.78
2022-12-24T13:23:04.352Z,101454.19
2022-12-24T13:25:44.137Z,101464.56
2022-12-24T13:28:23.398Z,101461.91
2022-12-24T13:30:51.882Z,101462.78
2022-12-24T13:33:34.420Z,101451.06
2022-12-24T13:36:18.646Z,101454.81
2022-12-24T13:38:49.724Z,101464.72
2022-12-24T13:41:42.120Z,101470.34
2022-12-24T13:44:18.321Z,101474.09
2022-12-24T13:47:01.300Z,101467.31
2022-12-24T13:49:30.804Z,101463.50
2022-12-24T13:52:11.318Z,101467.06
2022-12-24T13:55:03.312Z,101474.03
2022-12-24T13:57:36.579Z,101466.28
2022-12-24T14:00:12.716Z,101461.91
2022-12-24T14:03:06.163Z,101476.59
2022-12-24T14:05:39.383Z,101471.50
2022-12-24T14:08:26.033Z,101474.34
2022-12-24T14:11:07.709Z,101482.91
2022-12-24T14:13:47.431Z,101487.97
2022-12-24T14:16:20.916Z,101488.91
2022-12-24T14:18:59.777Z,101500.22
2022-12-24T14:21:42.712Z,101489.06
2022-12-24T14:24:29.216Z,101505.72
2022-12-24T14:27:07.120Z,101506.53
2022-12-24T14:29:59.451Z,101511.59
2022-12-24T14:32:35.915Z,101515.03
2022-12-24T14:35:21.496Z,101517.28
2022-12-24T14:37:59.156Z,101521.06
2022-12-24T14:40:29.493Z,101520.22
2022-12-24T14:43:35.104Z,101519.88
2022-12-24T14:46:25.791Z,101526.41
2022-12-24T14:49:24.135Z,101517.78
2022-12-24T14:55:41.783Z,101507.41
2022-12-24T14:58:29.326Z,101506.81
2022-12-24T15:01:00.262Z,101510.47
2022-12-24T15:03:33.532Z,101503.28
2022-12-24T15:06:06.267Z,101503.69
2022-12-24T15:08:50.375Z,101503.53
2022-12-24T15:11:21.904Z,101508.59
2022-12-24T15:13:57.590Z,101505.22
2022-12-24T15:16:33.700Z,101508.47
2022-12-24T15:19:32.551Z,101497.66
2022-12-24T15:22:02.665Z,101510.44
2022-12-24T15:24:36.598Z,101507.69
2022-12-24T15:27:20.407Z,101512.03
2022-12-24T15:29:51.449Z,101515.63
2022-12-24T15:32:20.931Z,101515.75
2022-12-24T15:34:50.748Z,101518.03
2022-12-24T15:37:30.335Z,101511.09
2022-12-24T15:40:11.299Z,101522.38
2022-12-24T15:42:42.581Z,101533.19
2022-12-24T15:45:41.559Z,101533.00
2022-12-24T15:48:11.723Z,101540.78
2022-12-24T15:50:45.237Z,101548.53
2022-12-24T15:53:44.799Z,101557.56
2022-12-24T15:56:27.547Z,101557.75
2022-12-24T15:59:31.636Z,101558.69
2022-12-24T16:02:19.042Z,101566.75
2022-12-24T16:04:46.638Z,101563.63
2022-12-24T16:07:25.633Z,101563.78
2022-12-24T16:09:52.769Z,101566.03
2022-12-24T16:12:26.237Z,101568.41
2022-12-24T16:14:59.268Z,101563.34
2022-12-24T16:17:34.500Z,101563.31
2022-12-24T16:20:06.024Z,101556.03
2022-12-24T16:22:33.420Z,101554.25
2022-12-24T16:25:15.978Z,101554.38
2022-12-24T16:27:43.303Z,101544.16
2022-12-24T16:30:12.524Z,101540.25
2022-12-24T16:32:42.389Z,101533.59
2022-12-24T16:35:33.637Z,101542.44
2022-12-24T16:38:00.849Z,101540.31
2022-12-24T16:40:28.411Z,101538.03
2022-12-24T16:43:17.569Z,101552.69
2022-12-24T16:45:46.859Z,101544.75
2022-12-24T16:48:25.668Z,101547.00
2022-12-24T16:50:53.407Z,101561.34
2022-12-24T16:53:22.450Z,101560.53
2022-12-24T16:55:51.697Z,101558.28
2022-12-24T16:58:19.964Z,101566.03
2022-12-24T17:03:49.949Z,101578.16
2022-12-24T17:06:17.067Z,101585.38
2022-12-24T17:08:44.207Z,101589.44
2022-12-24T17:11:11.390Z,101590.84
2022-12-24T17:13:38.468Z,101588.72
2022-12-24T17:16:06.272Z,101595.41
2022-12-24T17:18:33.351Z,101600.63
2022-12-24T17:21:01.601Z,101593.03
2022-12-24T17:23:28.783Z,101590.91
2022-12-24T17:25:56.326Z,101597.00
2022-12-24T17:28:23.335Z,101601.81
2022-12-24T17:30:50.331Z,101605.97
2022-12-24T17:33:17.351Z,101612.69
2022-12-24T17:35:46.454Z,101607.34
2022-12-24T17:38:13.621Z,101609.03
2022-12-24T17:40:40.668Z,101616.25
2022-12-24T17:43:09.389Z,101600.75
2022-12-24T17:45:41.729Z,101605.50
2022-12-24T17:48:08.801Z,101609.97
2022-12-24T17:50:42.028Z,101606.53
2022-12-24T17:53:09.178Z,101602.47
2022-12-24T17:55:41.463Z,101600.06
2022-12-24T17:58:09.160Z,101602.00
2022-12-24T18:00:36.382Z,101600.84
2022-12-24T18:03:03.445Z,101604.72
2022-12-24T18:05:30.700Z,101608.06
2022-12-24T18:07:57.650Z,101615.47
2022-12-24T18:10:24.634Z,101616.28
2022-12-24T18:12:51.725Z,101611.91
2022-12-24T18:15:20.540Z,101614.97
2022-12-24T18:17:55.174Z,101616.91
2022-12-24T18:20:22.825Z,101622.97
2022-12-24T18:22:50.098Z,101630.69
2022-12-24T18:25:17.388Z,101637.88
2022-12-24T18:27:44.492Z,101648.31
2022-12-24T18:30:11.985Z,101649.44
2022-12-24T18:32:39.428Z,101648.94
2022-12-24T18:35:07.521Z,101648.72
2022-12-24T18:37:34.810Z,101651.78
2022-12-24T18:40:02.469Z,101668.50
2022-12-24T18:42:29.719Z,101672.47
2022-12-24T18:44:56.812Z,101667.59
2022-12-24T18:47:23.833Z,101676.28
2022-12-24T18:49:50.854Z,101680.88
2022-12-24T18:52:22.598Z,101685.22
2022-12-24T18:54:50.785Z,101692.31
2022-12-24T18:57:18.038Z,101689.91
2022-12-24T18:59:44.963Z,101685.22
2022-12-24T19:02:12.183Z,101686.25
2022-12-24T19:04:39.227Z,101683.09
2022-12-24T19:07:06.228Z,101676.81
2022-12-24T19:09:33.383Z,101687.78
2022-12-24T19:12:00.340Z,101689.50
2022-12-24T19:14:27.479Z,101692.94
2022-12-24T19:16:54.614Z,101690.28
2022-12-24T19:19:24.201Z,101690.97
2022-12-24T19:21:51.895Z,101695.94
2022-12-24T19:24:18.895Z,101698.97
2022-12-24T19:26:46.082Z,101698.47
2022-12-24T19:29:13.258Z,101696.63
2022-12-24T19:31:40.950Z,101690.41
2022-12-24T19:34:07.942Z,101695.78
2022-12-24T19:36:35.554Z,101694.25
2022-12-24T19:39:02.617Z,101705.19
2022-12-24T19:41:30.475Z,101699.72
2022-12-24T19:44:00.550Z,101700.72
2022-12-24T19:46:33.695Z,101692.31
2022-12-24T19:49:02.344Z,101694.03
2022-12-24T19:51:29.917Z,101697.63
2022-12-24T19:53:58.731Z,101689.06
2022-12-24T19:56:28.164Z,101701.34
2022-12-24T19:58:55.831Z,101704.88
2022-12-24T20:01:25.276Z,101705.31
2022-12-24T20:03:53.958Z,101706.94
2022-12-24T20:06:24.165Z,101709.66
2022-12-24T20:08:51.270Z,101710.94
2022-12-24T20:11:21.077Z,101703.41
2022-12-24T20:13:48.491Z,101702.81
2022-12-24T20:16:18.168Z,101694.88
2022-12-24T20:18:50.939Z,101708.06
2022-12-24T20:21:18.165Z,101697.31
2022-12-24T20:23:45.292Z,101712.63
2022-12-24T20:26:14.916Z,101708.06
2022-12-24T20:28:44.137Z,101712.88
2022-12-24T20:31:17.256Z,101700.66
2022-12-24T20:33:45.511Z,101702.88
2022-12-24T20:36:16.131Z,101708.72
2022-12-24T20:38:43.835Z,101716.41
2022-12-24T20:41:16.847Z,101723.59
2022-12-24T20:43:48.417Z,101713.53
2022-12-24T20:46:21.619Z,101723.13
2022-12-24T20:48:49.180Z,101717.97
2022-12-24T20:51:24.331Z,101714.66
2022-12-24T20:53:53.855Z,101716.78
2022-12-24T20:56:21.374Z,101713.25
2022-12-24T20:58:48.565Z,101710.19
2022-12-24T21:01:19.213Z,101716.56
2022-12-24T21:03:46.889Z,101716.34
2022-12-24T21:06:17.991Z,101722.41
2022-12-24T21:08:53.599Z,101710.63
2022-12-24T21:11:39.906Z,101714.72
2022-12-24T21:14:07.729Z,101723.00
2022-12-24T21:16:35.958Z,101706.97
2022-12-24T21:19:04.408Z,101713.03
2022-12-24T21:21:31.826Z,101720.69
2022-12-24T21:23:59.030Z,101724.00
2022-12-24T21:26:26.143Z,101735.53
2022-12-24T21:28:54.223Z,101728.72
2022-12-24T21:31:21.724Z,101733.09
2022-12-24T21:33:48.853Z,101732.56
2022-12-24T21:36:16.722Z,101729.84
2022-12-24T21:38:43.759Z,101734.19
2022-12-24T21:41:14.723Z,101733.16
2022-12-24T21:43:42.756Z,101735.66
2022-12-24T21:46:15.973Z,101733.50
2022-12-24T21:49:01.636Z,101734.09
2022-12-24T21:51:29.108Z,101731.66
2022-12-24T21:54:15.180Z,101729.22
2022-12-24T21:57:00.925Z,101733.59
2022-12-24T21:59:28.225Z,101736.56
2022-12-24T22:01:57.054Z,101738.47
2022-12-24T22:04:24.902Z,101740.09
2022-12-24T22:07:11.192Z,101742.03
2022-12-24T22:09:58.119Z,101745.84
2022-12-24T22:12:26.093Z,101736.03
2022-12-24T22:14:53.266Z,101734.31
2022-12-24T22:17:25.266Z,101730.88
2022-12-24T22:19:54.258Z,101745.84
2022-12-24T22:22:22.022Z,101741.22
2022-12-24T22:24:49.117Z,101743.72
2022-12-24T22:27:16.064Z,101738.25
2022-12-24T22:29:43.060Z,101736.09
2022-12-24T22:32:10.184Z,101747.63
2022-12-24T22:34:37.159Z,101735.84
2022-12-24T22:37:04.332Z,101743.53
2022-12-24T22:39:31.321Z,101735.34
2022-12-24T22:41:58.517Z,101743.53
2022-12-24T22:44:25.649Z,101744.66
2022-12-24T22:46:52.796Z,101747.38
2022-12-24T22:49:19.940Z,101736.72
2022-12-24T22:51:46.933Z,101747.66
2022-12-24T22:54:14.150Z,101746.53
2022-12-24T22:56:42.042Z,101746.78
2022-12-24T22:59:12.560Z,101740.50
2022-12-24T23:01:41.849Z,101749.22
2022-12-24T23:04:10.416Z,101747.03
2022-12-24T23:06:37.653Z,101756.53
2022-12-24T23:09:07.439Z,101754.91
2022-12-24T23:11:34.730Z,101741.78
2022-12-24T23:14:20.371Z,101753.22
2022-12-24T23:16:47.459Z,101751.59
2022-12-24T23:19:14.553Z,101745.59
2022-12-24T23:21:41.875Z,101750.25
2022-12-24T23:24:10.577Z,101765.03
2022-12-24T23:26:37.605Z,101755.72
2022-12-24T23:29:04.838Z,101754.69
2022-12-24T23:31:31.831Z,101746.19
2022-12-24T23:33:59.063Z,101753.88
2022-12-24T23:36:26.159Z,101760.38
2022-12-24T23:38:54.459Z,101752.72
2022-12-24T23:41:22.067Z,101744.81
2022-12-24T23:43:49.511Z,101744.00
2022-12-24T23:46:18.471Z,101744.00
2022-12-24T23:48:46.106Z,101747.25
2022-12-24T23:51:19.237Z,101747.25
2022-12-24T23:53:46.688Z,101758.09
2022-12-24T23:56:13.759Z,101757.03
2022-12-24T23:58:42.127Z,101750.13
